createdAt,value
2023-05-02T00:01:50.262Z,97835.94
2023-05-02T00:04:16.804Z,97832.72
2023-05-02T00:06:43.387Z,97837.28
2023-05-02T00:09:10.001Z,97838.34
2023-05-02T00:11:36.436Z,97839.41
2023-05-02T00:14:02.770Z,97833.50
2023-05-02T00:16:29.114Z,97835.41
2023-05-02T00:18:55.524Z,97827.63
2023-05-02T00:21:22.268Z,97828.66
2023-05-02T00:23:48.605Z,97833.47
2023-05-02T00:26:14.921Z,97831.88
2023-05-02T00:28:41.239Z,97836.44
2023-05-02T00:31:07.780Z,97834.84
2023-05-02T00:33:34.169Z,97829.75
2023-05-02T00:36:00.444Z,97825.44
2023-05-02T00:38:26.743Z,97826.50
2023-05-02T00:40:53.129Z,97832.91
2023-05-02T00:43:19.458Z,97836.69
2023-05-02T00:45:45.796Z,97839.38
2023-05-02T00:48:12.277Z,97838.81
2023-05-02T00:50:38.764Z,97847.94
2023-05-02T00:53:05.090Z,97849.78
2023-05-02T00:55:31.450Z,97839.34
2023-05-02T00:57:57.870Z,97849.25
2023-05-02T01:00:24.176Z,97844.16
2023-05-02T01:02:50.622Z,97845.25
2023-05-02T01:05:17.115Z,97846.03
2023-05-02T01:07:43.673Z,97852.47
2023-05-02T01:10:10.014Z,97855.38
2023-05-02T01:12:36.374Z,97845.72
2023-05-02T01:15:02.856Z,97849.47
2023-05-02T01:17:29.257Z,97853.19
2023-05-02T01:19:55.536Z,97853.19
2023-05-02T01:22:22.101Z,97855.34
2023-05-02T01:24:48.462Z,97857.22
2023-05-02T01:27:14.809Z,97861.75
2023-05-02T01:29:41.164Z,97862.03
2023-05-02T01:32:07.848Z,97852.38
2023-05-02T01:34:34.194Z,97859.59
2023-05-02T01:37:00.537Z,97870.31
2023-05-02T01:39:26.931Z,97860.69
2023-05-02T01:41:53.243Z,97870.84
2023-05-02T01:44:19.588Z,97866.28
2023-05-02T01:46:46.013Z,97863.88
2023-05-02T01:49:12.424Z,97867.63
2023-05-02T01:51:38.728Z,97865.75
2023-05-02T01:54:05.087Z,97871.34
2023-05-02T01:56:31.362Z,97860.91
2023-05-02T01:58:57.753Z,97859.03
2023-05-02T02:01:24.099Z,97870.00
2023-05-02T02:03:50.585Z,97868.16
2023-05-02T02:06:17.032Z,97869.19
2023-05-02T02:08:44.572Z,97864.09
2023-05-02T02:11:10.921Z,97869.47
2023-05-02T02:13:37.231Z,97868.66
2023-05-02T02:16:03.537Z,97872.41
2023-05-02T02:18:30.090Z,97874.28
2023-05-02T02:20:56.494Z,97878.81
2023-05-02T02:23:22.943Z,97874.53
2023-05-02T02:25:49.264Z,97881.75
2023-05-02T02:28:15.601Z,97882.00
2023-05-02T02:30:42.049Z,97891.69
2023-05-02T02:33:08.501Z,97893.81
2023-05-02T02:35:34.809Z,97901.84
2023-05-02T02:38:01.110Z,97895.66
2023-05-02T02:40:27.461Z,97898.59
2023-05-02T02:42:53.874Z,97909.31
2023-05-02T02:45:20.386Z,97909.31
2023-05-02T02:47:46.796Z,97895.38
2023-05-02T02:50:13.311Z,97914.13
2023-05-02T02:52:39.744Z,97915.97
2023-05-02T02:55:06.123Z,97917.88
2023-05-02T02:57:32.512Z,97918.91
2023-05-02T02:59:59.034Z,97929.63
2023-05-02T03:02:25.464Z,97925.34
2023-05-02T03:04:51.779Z,97927.22
2023-05-02T03:07:18.227Z,97929.06
2023-05-02T03:09:44.552Z,97930.16
2023-05-02T03:12:11.022Z,97935.50
2023-05-02T03:14:37.652Z,97936.56
2023-05-02T03:17:04.488Z,97937.63
2023-05-02T03:19:31.032Z,97944.84
2023-05-02T03:21:57.388Z,97945.09
2023-05-02T03:24:23.695Z,97947.78
2023-05-02T03:26:49.974Z,97952.34
2023-05-02T03:29:16.377Z,97952.56
2023-05-02T03:31:42.947Z,97961.69
2023-05-02T03:34:09.472Z,97967.03
2023-05-02T03:36:35.921Z,97959.00
2023-05-02T03:39:02.496Z,97960.09
2023-05-02T03:41:28.763Z,97957.63
2023-05-02T03:43:55.398Z,97957.63
2023-05-02T03:46:21.734Z,97963.00
2023-05-02T03:48:48.051Z,97971.84
2023-05-02T03:51:14.525Z,97967.56
2023-05-02T03:53:40.854Z,97967.56
2023-05-02T03:56:07.226Z,97969.16
2023-05-02T03:58:33.708Z,97963.81
2023-05-02T04:01:00.009Z,97973.69
2023-05-02T04:03:27.281Z,97979.88
2023-05-02T04:05:55.793Z,97978.28
2023-05-02T04:08:22.324Z,97985.22
2023-05-02T04:10:48.629Z,97987.09
2023-05-02T04:13:14.976Z,97987.91
2023-05-02T04:15:41.366Z,97991.66
2023-05-02T04:18:07.854Z,98000.47
2023-05-02T04:20:34.279Z,97997.00
2023-05-02T04:23:00.603Z,98000.72
2023-05-02T04:25:26.880Z,98009.56
2023-05-02T04:27:53.162Z,98009.56
2023-05-02T04:30:19.490Z,98013.06
2023-05-02T04:32:45.905Z,98013.06
2023-05-02T04:35:12.254Z,98013.84
2023-05-02T04:37:38.600Z,98017.34
2023-05-02T04:40:04.917Z,98025.38
2023-05-02T04:42:31.287Z,98031.56
2023-05-02T04:44:57.727Z,98035.06
2023-05-02T04:47:24.004Z,98036.66
2023-05-02T04:49:50.298Z,98042.56
2023-05-02T04:52:16.624Z,98039.88
2023-05-02T04:54:42.963Z,98051.41
2023-05-02T04:57:09.257Z,98057.56
2023-05-02T04:59:35.620Z,98059.19
2023-05-02T05:02:01.960Z,98059.97
2023-05-02T05:04:28.298Z,98068.81
2023-05-02T05:06:54.706Z,98075.25
2023-05-02T05:09:21.051Z,98067.75
2023-05-02T05:11:47.486Z,98073.09
2023-05-02T05:14:13.807Z,98077.66
2023-05-02T05:16:40.213Z,98071.50
2023-05-02T05:19:06.764Z,98082.22
2023-05-02T05:21:33.330Z,98080.09
2023-05-02T05:23:59.658Z,98089.97
2023-05-02T05:26:25.970Z,98087.56
2023-05-02T05:28:52.662Z,98085.97
2023-05-02T05:31:19.108Z,98088.63
2023-05-02T05:33:45.560Z,98098.28
2023-05-02T05:36:11.974Z,98100.94
2023-05-02T05:38:38.270Z,98106.88
2023-05-02T05:41:04.581Z,98101.50
2023-05-02T05:43:30.882Z,98107.69
2023-05-02T05:45:57.174Z,98106.88
2023-05-02T05:48:23.653Z,98103.13
2023-05-02T05:50:50.049Z,98109.28
2023-05-02T05:53:16.390Z,98110.34
2023-05-02T05:55:42.765Z,98114.91
2023-05-02T05:58:09.121Z,98117.56
2023-05-02T06:00:35.431Z,98116.75
2023-05-02T06:03:02.578Z,98120.50
2023-05-02T06:05:28.904Z,98125.88
2023-05-02T06:07:55.267Z,98125.88
2023-05-02T06:10:21.789Z,98130.97
2023-05-02T06:12:49.219Z,98130.16
2023-05-02T06:15:15.870Z,98137.38
2023-05-02T06:17:42.809Z,98133.91
2023-05-02T06:20:09.154Z,98141.13
2023-05-02T06:22:35.487Z,98145.66
2023-05-02T06:25:01.795Z,98145.91
2023-05-02T06:27:28.056Z,98149.41
2023-05-02T06:29:54.388Z,98145.34
2023-05-02T06:32:20.679Z,98157.69
2023-05-02T06:34:46.937Z,98156.06
2023-05-02T06:37:13.350Z,98161.41
2023-05-02T06:39:39.619Z,98167.84
2023-05-02T06:42:05.909Z,98170.25
2023-05-02T06:44:32.153Z,98177.00
2023-05-02T06:46:58.549Z,98181.28
2023-05-02T06:49:25.088Z,98183.94
2023-05-02T06:51:51.572Z,98188.50
2023-05-02T06:54:18.033Z,98203.53
2023-05-02T06:56:44.441Z,98210.47
2023-05-02T06:59:10.971Z,98205.94
2023-05-02T07:01:40.482Z,98212.91
2023-05-02T07:04:06.927Z,98214.28
2023-05-02T07:06:33.500Z,98217.78
2023-05-02T07:08:59.872Z,98222.56
2023-05-02T07:11:26.410Z,98226.53
2023-05-02T07:13:52.940Z,98214.97
2023-05-02T07:16:19.435Z,98233.28
2023-05-02T07:18:45.761Z,98236.53
2023-05-02T07:21:12.044Z,98237.31
2023-05-02T07:23:38.497Z,98238.69
2023-05-02T07:26:06.220Z,98241.13
2023-05-02T07:28:33.265Z,98248.16
2023-05-02T07:30:59.657Z,98249.31
2023-05-02T07:33:26.411Z,98256.56
2023-05-02T07:35:52.737Z,98249.56
2023-05-02T07:38:18.993Z,98259.81
2023-05-02T07:40:45.321Z,98265.16
2023-05-02T07:43:11.783Z,98264.66
2023-05-02T07:45:38.181Z,98264.97
2023-05-02T07:48:04.612Z,98263.19
2023-05-02T07:50:30.987Z,98272.50
2023-05-02T07:52:57.313Z,98264.50
2023-05-02T07:55:23.757Z,98267.88
2023-05-02T07:57:50.091Z,98268.09
2023-05-02T08:00:16.460Z,98268.03
2023-05-02T08:02:42.980Z,98266.41
2023-05-02T08:05:09.543Z,98269.88
2023-05-02T08:07:37.083Z,98278.75
2023-05-02T08:10:05.112Z,98283.59
2023-05-02T08:12:31.472Z,98288.44
2023-05-02T08:14:57.877Z,98289.81
2023-05-02T08:17:24.227Z,98294.94
2023-05-02T08:19:50.645Z,98299.72
2023-05-02T08:22:16.932Z,98299.72
2023-05-02T08:24:43.356Z,98303.47
2023-05-02T08:27:09.736Z,98302.66
2023-05-02T08:29:36.179Z,98311.53
2023-05-02T08:32:02.621Z,98316.63
2023-05-02T08:34:28.987Z,98318.00
2023-05-02T08:36:56.863Z,98316.94
2023-05-02T08:39:24.701Z,98324.97
2023-05-02T08:41:51.103Z,98323.69
2023-05-02T08:44:17.544Z,98329.81
2023-05-02T08:46:43.906Z,98326.88
2023-05-02T08:49:10.323Z,98333.59
2023-05-02T08:51:37.506Z,98332.75
2023-05-02T08:54:04.826Z,98347.53
2023-05-02T08:56:31.427Z,98355.06
2023-05-02T08:58:57.819Z,98360.44
2023-05-02T09:01:24.274Z,98365.78
2023-05-02T09:03:50.752Z,98373.28
2023-05-02T09:06:17.360Z,98379.19
2023-05-02T09:08:43.768Z,98382.69
2023-05-02T09:11:10.090Z,98397.44
2023-05-02T09:13:36.535Z,98403.63
2023-05-02T09:16:03.099Z,98396.63
2023-05-02T09:18:29.513Z,98402.25
2023-05-02T09:20:55.872Z,98405.50
2023-05-02T09:23:22.248Z,98406.63
2023-05-02T09:25:48.559Z,98412.00
2023-05-02T09:28:15.016Z,98421.06
2023-05-02T09:30:41.892Z,98410.34
2023-05-02T09:33:08.320Z,98421.06
2023-05-02T09:35:34.738Z,98423.53
2023-05-02T09:38:01.070Z,98425.69
2023-05-02T09:40:27.358Z,98432.94
2023-05-02T09:42:53.760Z,98433.25
2023-05-02T09:45:20.087Z,98434.06
2023-05-02T09:47:46.425Z,98441.53
2023-05-02T09:50:12.762Z,98445.50
2023-05-02T09:52:39.325Z,98444.72
2023-05-02T09:55:06.169Z,98447.66
2023-05-02T09:57:32.627Z,98453.56
2023-05-02T09:59:58.876Z,98455.00
2023-05-02T10:02:25.192Z,98458.88
2023-05-02T10:04:51.536Z,98469.09
2023-05-02T10:07:17.904Z,98458.34
2023-05-02T10:09:44.252Z,98462.44
2023-05-02T10:12:10.544Z,98468.84
2023-05-02T10:14:36.789Z,98476.63
2023-05-02T10:17:03.030Z,98479.09
2023-05-02T10:19:29.414Z,98479.09
2023-05-02T10:21:55.742Z,98481.75
2023-05-02T10:24:22.738Z,98488.22
2023-05-02T10:26:49.099Z,98482.13
2023-05-02T10:29:15.546Z,98493.44
2023-05-02T10:31:42.970Z,98498.28
2023-05-02T10:34:10.592Z,98491.59
2023-05-02T10:36:36.904Z,98491.41
2023-05-02T10:39:03.197Z,98486.41
2023-05-02T10:41:29.542Z,98485.56
2023-05-02T10:43:55.863Z,98489.78
2023-05-02T10:46:22.402Z,98485.44
2023-05-02T10:48:50.977Z,98487.00
2023-05-02T10:51:17.261Z,98487.25
2023-05-02T10:53:43.536Z,98494.72
2023-05-02T10:56:09.844Z,98492.03
2023-05-02T10:58:36.162Z,98484.81
2023-05-02T11:01:02.443Z,98497.66
2023-05-02T11:03:28.814Z,98500.34
2023-05-02T11:05:55.401Z,98496.84
2023-05-02T11:08:23.222Z,98500.34
2023-05-02T11:10:49.840Z,98497.66
2023-05-02T11:13:16.186Z,98500.91
2023-05-02T11:15:42.503Z,98510.81
2023-05-02T11:18:09.214Z,98505.47
2023-05-02T11:20:38.811Z,98505.19
2023-05-02T11:23:05.151Z,98507.88
2023-05-02T11:25:31.555Z,98514.06
2023-05-02T11:27:57.991Z,98511.63
2023-05-02T11:30:24.618Z,98520.72
2023-05-02T11:32:50.916Z,98519.94
2023-05-02T11:35:17.412Z,98521.81
2023-05-02T11:37:43.944Z,98506.69
2023-05-02T11:40:10.198Z,98521.53
2023-05-02T11:42:36.639Z,98520.25
2023-05-02T11:45:03.350Z,98525.41
2023-05-02T11:47:30.066Z,98523.03
2023-05-02T11:49:56.385Z,98528.50
2023-05-02T11:52:22.699Z,98533.34
2023-05-02T11:54:49.023Z,98537.69
2023-05-02T11:57:15.400Z,98544.09
2023-05-02T11:59:42.918Z,98533.06
2023-05-02T12:02:09.717Z,98535.97
2023-05-02T12:04:36.117Z,98552.09
2023-05-02T12:07:02.514Z,98542.16
2023-05-02T12:09:29.019Z,98552.09
2023-05-02T12:11:55.401Z,98554.78
2023-05-02T12:14:21.751Z,98554.50
2023-05-02T12:16:48.315Z,98554.00
2023-05-02T12:19:14.858Z,98556.47
2023-05-02T12:21:41.299Z,98555.97
2023-05-02T12:24:07.756Z,98560.00
2023-05-02T12:26:34.070Z,98560.25
2023-05-02T12:29:00.376Z,98558.06
2023-05-02T12:31:26.695Z,98560.19
2023-05-02T12:33:56.032Z,98566.63
2023-05-02T12:36:22.370Z,98565.25
2023-05-02T12:38:48.881Z,98570.88
2023-05-02T12:41:15.233Z,98574.84
2023-05-02T12:43:41.610Z,98575.88
2023-05-02T12:46:08.101Z,98588.25
2023-05-02T12:48:34.449Z,98593.38
2023-05-02T12:51:00.828Z,98595.00
2023-05-02T12:53:27.166Z,98598.50
2023-05-02T12:55:53.528Z,98611.94
2023-05-02T12:58:19.892Z,98605.50
2023-05-02T13:00:47.775Z,98615.50
2023-05-02T13:03:14.436Z,98611.22
2023-05-02T13:05:40.800Z,98607.00
2023-05-02T13:08:07.372Z,98610.25
2023-05-02T13:10:33.878Z,98615.94
2023-05-02T13:13:00.230Z,98611.13
2023-05-02T13:15:26.660Z,98614.06
2023-05-02T13:17:53.063Z,98615.88
2023-05-02T13:20:19.600Z,98616.84
2023-05-02T13:22:45.951Z,98627.28
2023-05-02T13:25:12.327Z,98614.94
2023-05-02T13:27:38.677Z,98623.22
2023-05-02T13:30:08.555Z,98628.81
2023-05-02T13:32:35.550Z,98637.94
2023-05-02T13:35:01.940Z,98644.34
2023-05-02T13:37:28.399Z,98643.78
2023-05-02T13:39:54.719Z,98649.72
2023-05-02T13:42:21.123Z,98648.69
2023-05-02T13:44:47.449Z,98648.16
2023-05-02T13:47:13.954Z,98656.78
2023-05-02T13:49:40.276Z,98650.13
2023-05-02T13:52:06.628Z,98657.94
2023-05-02T13:54:33.198Z,98654.19
2023-05-02T13:56:59.893Z,98652.81
2023-05-02T13:59:26.240Z,98660.03
2023-05-02T14:01:52.660Z,98659.78
2023-05-02T14:04:20.146Z,98660.03
2023-05-02T14:06:47.893Z,98658.91
2023-05-02T14:09:14.392Z,98660.78
2023-05-02T14:11:40.731Z,98657.28
2023-05-02T14:14:07.283Z,98658.81
2023-05-02T14:16:33.746Z,98658.00
2023-05-02T14:19:00.372Z,98662.09
2023-05-02T14:21:26.828Z,98662.66
2023-05-02T14:23:53.141Z,98668.59
2023-05-02T14:26:19.600Z,98658.66
2023-05-02T14:28:46.204Z,98662.97
2023-05-02T14:31:12.571Z,98666.69
2023-05-02T14:33:38.971Z,98664.28
2023-05-02T14:36:05.520Z,98670.47
2023-05-02T14:38:31.857Z,98673.13
2023-05-02T14:40:58.162Z,98668.34
2023-05-02T14:43:24.523Z,98668.34
2023-05-02T14:45:50.920Z,98667.03
2023-05-02T14:48:17.462Z,98663.28
2023-05-02T14:50:43.853Z,98663.28
2023-05-02T14:53:10.271Z,98665.41
2023-05-02T14:55:36.578Z,98667.03
2023-05-02T14:58:02.909Z,98671.34
2023-05-02T15:00:29.234Z,98668.66
2023-05-02T15:02:55.946Z,98668.66
2023-05-02T15:05:22.840Z,98667.59
2023-05-02T15:07:49.178Z,98669.81
2023-05-02T15:10:15.633Z,98666.88
2023-05-02T15:12:42.026Z,98684.31
2023-05-02T15:15:08.312Z,98678.69
2023-05-02T15:17:35.008Z,98688.97
2023-05-02T15:20:01.448Z,98686.03
2023-05-02T15:22:27.930Z,98684.16
2023-05-02T15:24:54.452Z,98691.97
2023-05-02T15:27:20.783Z,98694.66
2023-05-02T15:29:47.062Z,98700.03
2023-05-02T15:32:13.510Z,98701.63
2023-05-02T15:34:40.153Z,98708.66
2023-05-02T15:37:06.902Z,98705.97
2023-05-02T15:39:33.408Z,98714.00
2023-05-02T15:41:59.744Z,98708.66
2023-05-02T15:44:26.154Z,98716.91
2023-05-02T15:46:52.565Z,98710.50
2023-05-02T15:49:19.050Z,98710.75
2023-05-02T15:51:45.410Z,98713.44
2023-05-02T15:54:11.744Z,98718.00
2023-05-02T15:56:38.129Z,98721.97
2023-05-02T15:59:04.503Z,98716.06
2023-05-02T16:01:30.867Z,98718.75
2023-05-02T16:04:00.740Z,98712.56
2023-05-02T16:06:27.124Z,98714.16
2023-05-02T16:08:53.538Z,98714.16
2023-05-02T16:11:19.850Z,98717.09
2023-05-02T16:13:46.164Z,98716.28
2023-05-02T16:16:12.561Z,98723.78
2023-05-02T16:18:38.957Z,98726.69
2023-05-02T16:21:05.826Z,98716.47
2023-05-02T16:23:32.128Z,98719.41
2023-05-02T16:25:58.546Z,98721.50
2023-05-02T16:28:24.880Z,98720.69
2023-05-02T16:30:51.221Z,98717.47
2023-05-02T16:33:17.551Z,98727.63
2023-05-02T16:35:44.002Z,98720.63
2023-05-02T16:38:10.421Z,98719.00
2023-05-02T16:40:36.759Z,98721.13
2023-05-02T16:43:03.354Z,98725.88
2023-05-02T16:45:29.851Z,98720.50
2023-05-02T16:47:59.495Z,98721.84
2023-05-02T16:50:25.922Z,98719.41
2023-05-02T16:52:52.272Z,98725.81
2023-05-02T16:55:18.610Z,98719.06
2023-05-02T16:57:45.489Z,98719.28
2023-05-02T17:00:12.084Z,98715.25
2023-05-02T17:02:38.451Z,98719.78
2023-05-02T17:05:04.873Z,98726.22
2023-05-02T17:07:31.228Z,98722.97
2023-05-02T17:09:57.657Z,98721.34
2023-05-02T17:12:24.157Z,98714.34
2023-05-02T17:14:50.569Z,98724.25
2023-05-02T17:17:16.888Z,98722.66
2023-05-02T17:19:43.250Z,98721.25
2023-05-02T17:22:09.613Z,98721.50
2023-05-02T17:24:36.143Z,98731.41
2023-05-02T17:27:02.435Z,98724.69
2023-05-02T17:29:28.849Z,98728.66
2023-05-02T17:31:55.165Z,98729.97
2023-05-02T17:34:21.590Z,98734.75
2023-05-02T17:36:47.932Z,98737.69
2023-05-02T17:39:14.230Z,98737.13
2023-05-02T17:41:40.560Z,98736.53
2023-05-02T17:44:06.970Z,98733.28
2023-05-02T17:46:33.391Z,98732.72
2023-05-02T17:49:00.185Z,98734.84
2023-05-02T17:51:29.302Z,98742.31
2023-05-02T17:53:55.771Z,98739.06
2023-05-02T17:56:22.206Z,98746.53
2023-05-02T17:58:48.634Z,98748.63
2023-05-02T18:01:14.986Z,98756.09
2023-05-02T18:03:41.401Z,98750.16
2023-05-02T18:06:08.169Z,98752.53
2023-05-02T18:08:34.574Z,98757.31
2023-05-02T18:11:00.940Z,98772.81
2023-05-02T18:13:27.267Z,98766.06
2023-05-02T18:15:53.601Z,98773.53
2023-05-02T18:18:19.988Z,98766.78
2023-05-02T18:20:46.350Z,98771.56
2023-05-02T18:23:25.524Z,98766.69
2023-05-02T18:25:52.151Z,98773.09
2023-05-02T18:28:18.821Z,98768.19
2023-05-02T18:30:45.320Z,98773.78
2023-05-02T18:33:11.739Z,98773.47
2023-05-02T18:35:38.271Z,98778.22
2023-05-02T18:38:04.748Z,98775.81
2023-05-02T18:40:31.063Z,98776.28
2023-05-02T18:42:57.602Z,98786.44
2023-05-02T18:45:23.929Z,98789.59
2023-05-02T18:47:50.328Z,98786.31
2023-05-02T18:50:16.888Z,98788.41
2023-05-02T18:52:43.244Z,98790.53
2023-05-02T18:55:09.572Z,98794.47
2023-05-02T18:57:36.010Z,98795.78
2023-05-02T19:00:02.338Z,98790.09
2023-05-02T19:02:28.681Z,98794.63
2023-05-02T19:04:55.140Z,98793.25
2023-05-02T19:07:21.486Z,98803.59
2023-05-02T19:09:47.875Z,98807.31
2023-05-02T19:12:14.155Z,98809.41
2023-05-02T19:14:40.735Z,98810.72
2023-05-02T19:17:07.103Z,98809.06
2023-05-02T19:19:35.603Z,98821.09
2023-05-02T19:22:02.382Z,98820.25
2023-05-02T19:24:28.683Z,98822.13
2023-05-02T19:26:54.993Z,98825.03
2023-05-02T19:29:21.304Z,98828.53
2023-05-02T19:31:47.924Z,98830.97
2023-05-02T19:34:14.285Z,98829.34
2023-05-02T19:36:40.577Z,98838.19
2023-05-02T19:39:06.940Z,98835.97
2023-05-02T19:41:36.171Z,98834.13
2023-05-02T19:44:02.562Z,98844.84
2023-05-02T19:46:29.128Z,98831.69
2023-05-02T19:48:55.576Z,98831.94
2023-05-02T19:51:22.234Z,98840.16
2023-05-02T19:53:48.690Z,98835.88
2023-05-02T19:56:15.044Z,98834.47
2023-05-02T19:58:41.382Z,98836.34
2023-05-02T20:01:07.836Z,98834.69
2023-05-02T20:03:34.489Z,98833.09
2023-05-02T20:06:01.189Z,98832.50
2023-05-02T20:08:27.954Z,98834.59
2023-05-02T20:10:54.517Z,98834.81
2023-05-02T20:13:20.786Z,98842.28
2023-05-02T20:15:47.266Z,98840.91
2023-05-02T20:18:13.736Z,98846.47
2023-05-02T20:20:40.248Z,98841.34
2023-05-02T20:23:06.893Z,98844.25
2023-05-02T20:25:33.188Z,98841.81
2023-05-02T20:27:59.475Z,98844.72
2023-05-02T20:30:25.904Z,98846.81
2023-05-02T20:32:52.649Z,98851.31
2023-05-02T20:35:19.077Z,98847.25
2023-05-02T20:37:45.749Z,98852.84
2023-05-02T20:40:12.147Z,98859.22
2023-05-02T20:42:38.432Z,98866.66
2023-05-02T20:45:04.797Z,98865.28
2023-05-02T20:47:31.177Z,98864.69
2023-05-02T20:49:57.587Z,98874.56
2023-05-02T20:52:23.866Z,98875.63
2023-05-02T20:54:50.221Z,98873.97
2023-05-02T20:57:16.561Z,98870.75
2023-05-02T20:59:42.919Z,98874.44
2023-05-02T21:02:09.316Z,98880.03
2023-05-02T21:04:35.773Z,98882.94
2023-05-02T21:07:02.313Z,98883.19
2023-05-02T21:09:28.813Z,98880.75
2023-05-02T21:11:55.136Z,98877.47
2023-05-02T21:14:21.597Z,98887.34
2023-05-02T21:16:47.953Z,98884.09
2023-05-02T21:19:14.238Z,98890.50
2023-05-02T21:21:40.821Z,98883.72
2023-05-02T21:24:07.224Z,98880.25
2023-05-02T21:26:33.572Z,98877.78
2023-05-02T21:29:00.055Z,98874.56
2023-05-02T21:31:26.398Z,98880.94
2023-05-02T21:33:52.751Z,98876.63
2023-05-02T21:36:19.223Z,98879.53
2023-05-02T21:38:45.633Z,98887.78
2023-05-02T21:41:11.969Z,98888.81
2023-05-02T21:43:38.280Z,98880.22
2023-05-02T21:46:04.669Z,98875.69
2023-05-02T21:48:31.072Z,98892.75
2023-05-02T21:50:57.475Z,98886.03
2023-05-02T21:53:23.758Z,98878.00
2023-05-02T21:55:50.092Z,98891.59
2023-05-02T21:58:16.409Z,98891.84
2023-05-02T22:00:42.818Z,98890.19
2023-05-02T22:03:09.192Z,98892.28
2023-05-02T22:05:35.509Z,98884.34
2023-05-02T22:08:02.283Z,98898.69
2023-05-02T22:10:28.573Z,98896.00
2023-05-02T22:12:54.966Z,98892.50
2023-05-02T22:15:21.280Z,98895.41
2023-05-02T22:17:47.677Z,98887.63
2023-05-02T22:20:14.128Z,98897.50
2023-05-02T22:22:40.421Z,98899.38
2023-05-02T22:25:06.747Z,98903.06
2023-05-02T22:27:33.503Z,98895.28
2023-05-02T22:30:00.045Z,98897.13
2023-05-02T22:32:26.609Z,98894.69
2023-05-02T22:34:53.057Z,98892.25
2023-05-02T22:37:19.419Z,98891.41
2023-05-02T22:39:45.674Z,98886.28
2023-05-02T22:42:11.999Z,98891.66
2023-05-02T22:44:50.707Z,98892.94
2023-05-02T22:47:20.317Z,98888.63
2023-05-02T22:49:46.865Z,98881.66
2023-05-02T22:52:13.210Z,98890.69
2023-05-02T22:54:39.527Z,98889.91
2023-05-02T22:57:05.970Z,98885.81
2023-05-02T22:59:32.368Z,98893.00
2023-05-02T23:01:58.905Z,98893.22
2023-05-02T23:04:25.497Z,98889.72
2023-05-02T23:06:51.932Z,98888.34
2023-05-02T23:09:18.449Z,98878.72
2023-05-02T23:11:45.103Z,98878.13
2023-05-02T23:14:11.524Z,98881.00
2023-05-02T23:16:37.865Z,98884.47
2023-05-02T23:19:04.650Z,98878.53
2023-05-02T23:21:31.127Z,98883.28
2023-05-02T23:23:57.441Z,98885.13
2023-05-02T23:26:23.781Z,98881.88
2023-05-02T23:28:50.308Z,98885.59
2023-05-02T23:31:16.691Z,98883.94
2023-05-02T23:33:43.555Z,98885.78
2023-05-02T23:36:10.129Z,98882.56
2023-05-02T23:38:36.429Z,98886.25
2023-05-02T23:41:03.200Z,98890.22
2023-05-02T23:43:29.548Z,98889.38
2023-05-02T23:45:55.801Z,98888.78
2023-05-02T23:48:22.093Z,98883.66
2023-05-02T23:50:48.558Z,98884.13
2023-05-02T23:53:14.902Z,98890.50
2023-05-02T23:55:41.220Z,98886.19
2023-05-02T23:58:07.479Z,98887.22
